Time;durP1;ratioP1;P1;durP2;ratioP2;P2;SDS_P1;SDS_P2;PMS_P1;PMS_P2;Temp;Humidity;BMP_temperature;BMP_pressure;BME280_temperature;BME280_humidity;BME280_pressure;Samples;Min_cycle;Max_cycle;Signal;HPM_P1;HPM_P2
2023/01/04 00:00:05;;;;;;;3.40;1.47;;;9.50;77.70;;;11.72;56.29;101913.44;5022856;28;20206;-54
2023/01/04 00:02:32;;;;;;;1.77;1.30;;;9.50;77.70;;;11.63;56.36;101906.41;5033616;28;20686;-53
2023/01/04 00:04:59;;;;;;;2.60;1.40;;;9.50;77.70;;;11.62;56.61;101901.31;5033090;28;20325;-53
2023/01/04 00:07:28;;;;;;;5.87;2.10;;;9.50;77.70;;;11.51;56.39;101899.72;5033975;28;20678;-52
2023/01/04 00:09:55;;;;;;;3.57;2.00;;;9.40;77.70;;;11.59;56.57;101899.81;5032800;28;20218;-51
2023/01/04 00:12:22;;;;;;;6.30;2.03;;;9.40;77.70;;;11.52;56.43;101886.41;5032452;28;20271;-52
2023/01/04 00:14:49;;;;;;;6.07;1.70;;;9.40;77.70;;;11.52;56.51;101888.22;5033867;28;20183;-55
2023/01/04 00:17:17;;;;;;;2.23;1.43;;;9.40;77.60;;;11.53;56.55;101876.66;5028629;28;20199;-52
2023/01/04 00:19:44;;;;;;;1.50;1.40;;;9.40;77.70;;;11.58;56.56;101875.22;5013632;28;20304;-52
2023/01/04 00:22:11;;;;;;;3.07;1.57;;;9.50;77.70;;;11.74;56.22;101871.09;5013622;28;20540;-52
2023/01/04 00:24:38;;;;;;;3.53;1.47;;;9.40;77.50;;;11.67;56.17;101862.13;5013945;28;20289;-52
2023/01/04 00:27:05;;;;;;;2.43;1.30;;;9.40;77.50;;;11.64;55.87;101868.53;5033950;28;20628;-52
2023/01/04 00:29:32;;;;;;;2.83;1.37;;;9.40;77.30;;;11.65;55.78;101864.91;5039121;28;20218;-51
2023/01/04 00:31:59;;;;;;;2.23;1.20;;;9.40;77.30;;;11.69;56.11;101861.03;5038513;28;20187;-54
2023/01/04 00:34:27;;;;;;;4.17;1.40;;;9.50;77.30;;;11.73;56.12;101862.38;5034761;28;20191;-53
2023/01/04 00:36:54;;;;;;;5.40;1.70;;;9.50;77.20;;;11.75;55.80;101849.84;5033993;28;20195;-52
2023/01/04 00:39:21;;;;;;;4.37;1.80;;;9.50;77.10;;;11.79;55.61;101856.47;5034015;28;20211;-52
2023/01/04 00:41:50;;;;;;;4.60;1.60;;;9.60;77.10;;;11.82;55.52;101850.88;5033277;28;20217;-51
2023/01/04 00:44:27;;;;;;;2.50;1.80;;;9.50;77.00;;;11.85;55.85;101844.47;5033475;28;20199;-52
2023/01/04 00:46:55;;;;;;;3.40;1.50;;;9.60;76.90;;;11.89;55.35;101841.34;5031474;28;20207;-52
2023/01/04 00:49:21;;;;;;;4.73;1.73;;;9.50;76.80;;;11.86;55.30;101832.94;5027942;28;20219;-53
2023/01/04 00:51:50;;;;;;;2.63;1.43;;;9.60;76.80;;;11.80;55.33;101820.38;5033810;28;20301;-52
2023/01/04 00:54:18;;;;;;;4.10;1.53;;;9.50;76.80;;;11.78;55.82;101820.53;5033590;28;20269;-54
2023/01/04 00:56:47;;;;;;;3.73;1.60;;;9.60;76.80;;;11.81;55.25;101807.03;5032775;28;20214;-55
2023/01/04 00:59:17;;;;;;;3.57;1.67;;;9.60;76.70;;;11.83;55.13;101798.97;5015892;28;20230;-53
2023/01/04 01:01:45;;;;;;;3.33;1.10;;;9.60;76.70;;;11.81;55.15;101785.09;5033491;28;20550;-52
2023/01/04 01:04:17;;;;;;;3.47;1.43;;;9.60;76.70;;;11.77;55.79;101784.56;5033229;28;20216;-53
2023/01/04 01:06:44;;;;;;;5.53;1.50;;;9.60;76.70;;;11.75;55.37;101780.44;5027203;28;20186;-54
2023/01/04 01:09:13;;;;;;;5.93;1.67;;;9.60;76.70;;;11.71;55.54;101769.38;5030514;28;20301;-54
2023/01/04 01:11:41;;;;;;;5.23;1.67;;;9.60;76.70;;;11.77;55.37;101765.28;5033138;28;20189;-52
2023/01/04 01:14:14;;;;;;;3.07;1.50;;;9.60;76.70;;;11.78;55.46;101770.41;5033196;28;20195;-52
2023/01/04 01:16:41;;;;;;;5.00;1.43;;;9.60;76.70;;;11.69;55.77;101745.00;5036002;28;20198;-55
2023/01/04 01:19:22;;;;;;;2.50;1.23;;;9.60;76.70;;;11.68;55.88;101743.31;5038118;28;20218;-53
2023/01/04 01:21:49;;;;;;;3.60;1.90;;;9.60;76.70;;;11.71;56.16;101737.75;5037172;28;20307;-52
2023/01/04 01:24:19;;;;;;;4.37;1.93;;;9.60;76.80;;;11.66;55.78;101739.97;5037363;28;20216;-52
2023/01/04 01:26:46;;;;;;;3.27;1.40;;;9.60;76.80;;;11.79;56.03;101714.03;5036555;28;20528;-55
2023/01/04 01:29:13;;;;;;;5.90;1.83;;;9.60;76.70;;;11.81;55.66;101712.09;5036620;28;20209;-52
2023/01/04 01:31:40;;;;;;;3.40;1.53;;;9.60;77.60;;;11.88;55.47;101709.63;5036298;28;20652;-55
2023/01/04 01:34:08;;;;;;;6.63;1.40;;;9.60;76.70;;;11.85;55.81;101700.22;5036296;28;20229;-59
2023/01/04 01:36:36;;;;;;;2.23;1.20;;;9.70;76.80;;;11.94;55.63;101696.63;5017953;28;20217;-50
2023/01/04 01:39:03;;;;;;;2.97;1.40;;;9.70;76.70;;;11.90;55.32;101700.56;5016007;28;20688;-51
2023/01/04 01:41:33;;;;;;;2.97;1.93;;;9.70;76.70;;;12.00;55.47;101697.81;5018929;28;20196;-53
2023/01/04 01:44:04;;;;;;;4.53;1.87;;;9.80;76.70;;;12.09;55.28;101687.13;5036939;28;20202;-53
2023/01/04 01:46:37;;;;;;;4.27;1.50;;;9.80;76.70;;;12.11;54.77;101684.31;5035578;28;20187;-52
2023/01/04 01:49:13;;;;;;;3.10;1.30;;;9.80;76.50;;;12.12;55.16;101668.28;5035789;28;20224;-51
2023/01/04 01:51:41;;;;;;;4.23;1.70;;;9.90;76.50;;;12.17;55.22;101663.38;5035699;28;20198;-52
2023/01/04 01:54:13;;;;;;;4.13;1.70;;;9.90;76.40;;;12.10;55.27;101665.00;5035897;28;20554;-52
2023/01/04 01:56:49;;;;;;;4.13;1.70;;;9.90;76.30;;;12.12;55.41;101659.59;5035105;28;20272;-52
2023/01/04 01:59:17;;;;;;;2.53;1.20;;;9.90;76.30;;;12.00;55.52;101648.50;5035751;28;20221;-52
2023/01/04 02:01:44;;;;;;;2.87;1.57;;;9.90;76.30;;;11.96;55.57;101630.50;5035533;28;20589;-52
2023/01/04 02:04:14;;;;;;;6.87;1.73;;;9.90;76.40;;;12.07;55.50;101638.97;5035506;28;20225;-51
2023/01/04 02:06:49;;;;;;;4.03;1.83;;;9.90;76.20;;;12.14;55.05;101629.41;5034894;28;20198;-54
2023/01/04 02:09:18;;;;;;;4.90;1.67;;;10.00;75.10;;;12.30;54.83;101622.47;5035293;28;20222;-54
2023/01/04 02:11:46;;;;;;;4.13;1.40;;;10.10;75.20;;;12.26;55.01;101616.72;5035899;28;20197;-52
2023/01/04 02:14:26;;;;;;;4.13;1.53;;;10.00;75.10;;;12.29;55.22;101605.00;5035103;28;20206;-54
2023/01/04 02:17:06;;;;;;;4.50;1.73;;;10.10;75.20;;;12.30;55.11;101606.63;5033442;28;20194;-52
2023/01/04 02:20:00;;;;;;;2.63;1.37;;;10.10;75.20;;;12.31;55.07;101603.03;5034571;28;20226;-55
2023/01/04 02:23:25;;;;;;;2.13;1.50;;;10.20;75.50;;;12.31;54.88;101603.03;5034922;28;20191;-55
2023/01/04 02:26:56;;;;;;;2.53;1.10;;;10.20;75.50;;;12.36;55.41;101585.69;5034984;28;20222;-52
2023/01/04 02:30:15;;;;;;;2.87;1.50;;;10.20;75.50;;;12.21;55.80;101576.78;4998084;28;20226;-54
2023/01/04 02:33:12;;;;;;;4.13;1.40;;;10.20;75.60;;;12.17;55.65;101555.16;5034756;28;20186;-54
2023/01/04 02:35:53;;;;;;;3.63;1.47;;;10.20;75.60;;;12.28;56.15;101555.81;5035433;28;20535;-52
2023/01/04 02:38:29;;;;;;;3.57;1.40;;;10.20;75.60;;;12.37;55.14;101541.63;5027942;28;20293;-54
2023/01/04 02:41:08;;;;;;;2.50;1.50;;;10.30;75.70;;;12.38;55.33;101535.38;5015952;28;20547;-52
2023/01/04 02:46:43;;;;;;;3.40;1.57;;;10.30;75.60;;;12.38;56.18;101519.53;5014674;28;20199;-52
2023/01/04 02:51:57;;;;;;;4.80;1.50;;;10.30;76.90;;;12.26;57.74;101515.59;5015161;28;20652;-55
2023/01/04 02:54:31;;;;;;;3.33;1.10;;;10.30;77.50;;;12.22;58.66;101523.81;5014733;28;20206;-55
2023/01/04 02:57:19;;;;;;;2.30;1.30;;;10.30;78.80;;;12.06;59.20;101504.53;5014673;28;20248;-54
2023/01/04 03:00:19;;;;;;;4.63;1.20;;;10.20;79.30;;;12.02;59.66;101488.22;5021437;28;20214;-52
2023/01/04 03:06:16;;;;;;;3.40;1.20;;;10.10;80.20;;;11.89;60.35;101472.03;5014338;28;20214;-52
2023/01/04 03:08:55;;;;;;;5.33;1.90;;;10.00;80.70;;;11.93;60.68;101473.34;5028722;28;20571;-55
2023/01/04 03:14:23;;;;;;;4.57;1.73;;;10.00;81.70;;;11.86;61.12;101450.47;5014777;28;20179;-52
2023/01/04 03:17:03;;;;;;;3.47;1.60;;;9.90;83.30;;;11.92;61.38;101444.50;5015289;28;20187;-53
2023/01/04 03:19:53;;;;;;;3.83;1.47;;;9.90;83.60;;;11.98;61.58;101438.59;5014351;28;20292;-52
2023/01/04 03:36:53;;;;;;;4.23;1.67;;;9.80;87.10;;;11.69;64.60;101394.28;5033699;28;20208;-55
2023/01/04 03:48:29;;;;;;;3.17;1.40;;;9.70;89.20;;;11.68;66.19;101353.06;5013850;28;20187;-54
2023/01/04 03:51:13;;;;;;;4.77;1.67;;;9.60;90.00;;;11.69;66.20;101344.16;5013651;28;20183;-51
2023/01/04 03:53:53;;;;;;;4.30;1.57;;;9.60;90.10;;;11.61;67.30;101323.03;5013612;28;20188;-54
2023/01/04 03:56:25;;;;;;;3.33;1.60;;;9.60;90.40;;;11.63;67.12;101331.59;5024593;28;20658;-53
2023/01/04 03:58:53;;;;;;;5.17;2.30;;;9.60;90.60;;;11.63;66.82;101322.84;5013427;28;20226;-55
2023/01/04 04:01:23;;;;;;;4.03;1.53;;;9.60;90.60;;;11.69;67.09;101312.53;5015901;28;20195;-53
2023/01/04 04:09:22;;;;;;;3.67;1.63;;;9.60;91.10;;;11.76;67.63;101302.13;5033084;28;20210;-54
2023/01/04 04:11:51;;;;;;;3.70;1.60;;;9.60;91.00;;;11.69;68.30;101288.78;5033137;28;20213;-53
2023/01/04 04:14:18;;;;;;;5.47;1.83;;;9.60;91.40;;;11.62;68.42;101285.16;5033070;28;20193;-55
2023/01/04 04:16:45;;;;;;;2.70;1.40;;;9.60;91.50;;;11.62;68.60;101285.16;5033180;28;20185;-54
2023/01/04 04:19:12;;;;;;;3.13;1.77;;;9.50;91.70;;;11.53;69.29;101276.41;5032955;28;20214;-52
2023/01/04 04:21:39;;;;;;;3.47;1.40;;;9.50;91.80;;;11.57;69.09;101282.19;5033003;28;20194;-56
2023/01/04 04:24:08;;;;;;;4.53;1.90;;;9.50;91.80;;;11.56;69.41;101272.63;5032116;28;20187;-55
2023/01/04 04:26:35;;;;;;;3.03;1.67;;;9.50;92.10;;;11.64;69.30;101263.88;5033502;28;20587;-52
2023/01/04 04:29:03;;;;;;;2.90;1.50;;;9.50;92.10;;;11.71;68.88;101255.16;5032962;28;20224;-54
2023/01/04 04:31:30;;;;;;;2.07;1.57;;;9.50;92.10;;;11.84;68.47;101257.28;5032928;28;20587;-51
2023/01/04 04:33:58;;;;;;;4.67;1.80;;;9.50;92.20;;;11.78;69.13;101252.66;5033262;28;20186;-53
2023/01/04 04:36:24;;;;;;;3.90;1.60;;;9.50;92.40;;;11.80;69.40;101235.69;5033310;28;20274;-55
2023/01/04 04:38:51;;;;;;;4.07;1.57;;;9.50;92.50;;;11.74;69.79;101235.53;5032833;28;20232;-54
2023/01/04 04:44:07;;;;;;;4.53;1.90;;;9.50;92.80;;;11.64;69.74;101214.63;5033021;28;20270;-53
2023/01/04 04:46:35;;;;;;;1.97;1.70;;;9.50;92.80;;;11.57;70.75;101216.28;5032605;28;20198;-52
2023/01/04 04:49:03;;;;;;;1.40;1.30;;;9.50;92.90;;;11.57;70.95;101208.38;5033139;28;20297;-53
2023/01/04 04:51:30;;;;;;;2.63;1.83;;;9.50;93.00;;;11.59;70.66;101180.03;5032855;28;20195;-55
2023/01/04 04:53:57;;;;;;;2.37;1.50;;;9.50;92.90;;;11.66;70.58;101204.72;5016866;28;20195;-52
2023/01/04 04:56:24;;;;;;;3.73;1.70;;;9.50;93.10;;;11.70;70.65;101173.56;5016590;28;20183;-53
2023/01/04 04:58:51;;;;;;;2.47;1.63;;;9.50;93.10;;;11.61;70.83;101174.56;5016352;28;20706;-53
2023/01/04 05:01:20;;;;;;;2.13;1.70;;;9.50;93.20;;;11.49;71.19;101174.13;5016062;28;20191;-55
2023/01/04 05:03:47;;;;;;;2.60;1.70;;;9.50;93.20;;;11.65;71.18;101167.97;5016983;28;20579;-55
2023/01/04 05:06:14;;;;;;;2.90;1.80;;;9.60;93.20;;;11.76;70.37;101176.38;5016273;28;20219;-54
2023/01/04 05:08:41;;;;;;;4.80;2.00;;;9.60;93.20;;;11.89;70.34;101171.34;5016392;28;20221;-53
2023/01/04 05:11:11;;;;;;;1.87;1.63;;;9.60;93.20;;;11.80;70.68;101169.75;5016283;28;20206;-52
2023/01/04 05:13:38;;;;;;;2.17;1.93;;;9.60;93.50;;;11.79;70.98;101160.19;5016528;28;20262;-52
2023/01/04 05:16:08;;;;;;;2.87;1.80;;;9.60;93.50;;;11.76;71.12;101151.81;5016102;28;20432;-54
2023/01/04 05:18:36;;;;;;;2.80;1.60;;;9.60;93.60;;;11.83;70.86;101139.56;5028365;28;20226;-54
2023/01/04 05:21:03;;;;;;;3.13;1.97;;;9.70;93.60;;;11.81;71.22;101137.13;5035864;28;20198;-53
2023/01/04 05:23:30;;;;;;;4.00;2.17;;;9.70;94.00;;;11.77;71.77;101146.34;5035670;28;20544;-53
2023/01/04 05:26:00;;;;;;;4.67;2.00;;;9.70;93.80;;;11.86;71.18;101124.22;5035987;28;20268;-54
2023/01/04 05:28:28;;;;;;;2.20;2.03;;;9.70;93.70;;;11.82;71.84;101122.91;5035620;28;20667;-53
2023/01/04 05:30:55;;;;;;;3.60;2.30;;;9.70;93.90;;;11.94;71.53;101115.44;5035936;28;20205;-53
2023/01/04 05:33:24;;;;;;;2.60;1.90;;;9.70;93.80;;;12.03;71.05;101103.84;5018974;28;20690;-54
2023/01/04 05:35:55;;;;;;;2.20;1.83;;;9.80;93.80;;;12.11;71.07;101103.78;5016208;28;20245;-53
2023/01/04 05:38:23;;;;;;;2.47;1.83;;;9.80;93.90;;;12.17;70.70;101101.25;5016081;28;20203;-53
2023/01/04 05:40:50;;;;;;;3.80;2.20;;;9.90;93.80;;;12.35;70.17;101092.22;5016129;28;20206;-52
2023/01/04 05:43:19;;;;;;;3.23;2.20;;;9.90;93.80;;;12.19;70.53;101106.38;5032526;28;20578;-51
2023/01/04 05:45:49;;;;;;;2.70;2.07;;;9.90;93.90;;;12.08;71.38;101089.13;5036153;28;20214;-54
2023/01/04 05:48:16;;;;;;;2.33;2.13;;;10.00;93.40;;;12.09;71.75;101084.69;5036189;28;20210;-52
2023/01/04 05:50:44;;;;;;;2.13;2.03;;;10.00;93.40;;;12.09;71.57;101090.78;5036448;28;20214;-51
2023/01/04 05:53:16;;;;;;;2.40;2.20;;;10.10;93.50;;;12.24;71.42;101102.19;5034891;28;20208;-54
2023/01/04 05:55:43;;;;;;;3.07;2.77;;;10.20;93.40;;;12.52;70.67;101109.59;5036247;28;20178;-53
2023/01/04 05:58:10;;;;;;;3.80;3.50;;;10.20;93.40;;;12.62;70.27;101094.31;5036569;28;20197;-51
2023/01/04 06:00:37;;;;;;;3.33;2.93;;;10.20;93.40;;;12.42;70.96;101099.28;5035992;28;20214;-54
2023/01/04 06:03:05;;;;;;;2.50;2.30;;;10.20;93.50;;;12.62;70.61;101104.88;5033857;28;20205;-52
2023/01/04 06:05:32;;;;;;;3.53;2.40;;;10.30;93.30;;;12.79;70.04;101093.97;5035079;28;20260;-53
2023/01/04 06:07:59;;;;;;;4.20;3.30;;;10.40;93.40;;;12.91;69.75;101089.06;5035533;28;20573;-52
2023/01/04 06:10:27;;;;;;;3.43;3.10;;;10.40;93.30;;;12.98;69.44;101095.25;5035443;28;20221;-52
2023/01/04 06:12:54;;;;;;;2.97;2.77;;;10.50;93.20;;;12.96;69.38;101076.13;5034474;28;20198;-51
2023/01/04 06:15:21;;;;;;;3.27;3.07;;;10.50;93.10;;;12.99;69.46;101070.50;5035261;28;20321;-52
2023/01/04 06:17:48;;;;;;;3.13;2.93;;;10.60;93.10;;;12.99;69.55;101067.84;5035140;28;20236;-54
2023/01/04 06:20:15;;;;;;;3.30;3.10;;;10.60;93.10;;;13.11;69.50;101078.81;5035887;28;20248;-53
2023/01/04 06:22:42;;;;;;;3.63;3.43;;;10.70;93.00;;;13.11;69.25;101074.38;5027777;28;20225;-53
2023/01/04 06:25:09;;;;;;;3.67;3.03;;;10.70;93.10;;;13.15;69.36;101059.78;5035446;28;20695;-53
2023/01/04 06:27:37;;;;;;;3.87;3.57;;;10.80;93.00;;;13.23;69.21;101080.84;5035180;28;20627;-54
2023/01/04 06:30:06;;;;;;;3.10;2.90;;;10.80;92.90;;;13.37;68.75;101058.84;5035190;28;20547;-54
2023/01/04 06:32:33;;;;;;;3.63;3.30;;;10.90;92.90;;;13.45;68.64;101060.56;5034939;28;20272;-52
2023/01/04 06:35:00;;;;;;;3.93;3.27;;;10.90;92.90;;;13.58;68.21;101058.91;5035296;28;20562;-56
2023/01/04 06:37:27;;;;;;;3.77;3.47;;;11.00;92.90;;;13.67;67.88;101050.84;5034814;28;20277;-53
2023/01/04 06:39:54;;;;;;;3.60;3.40;;;11.00;92.90;;;13.72;67.76;101056.38;5037548;28;20207;-52
2023/01/04 06:45:10;;;;;;;3.37;3.17;;;11.10;92.80;;;13.67;67.99;101053.50;5015292;28;20287;-53
2023/01/04 06:47:37;;;;;;;3.97;3.67;;;11.10;92.70;;;13.76;68.08;101041.78;5016993;28;20306;-52
2023/01/04 06:50:04;;;;;;;4.07;3.77;;;11.20;92.70;;;13.89;67.72;101047.22;5035984;28;20279;-52
2023/01/04 06:52:31;;;;;;;3.50;3.20;;;11.30;92.80;;;13.99;67.40;101047.72;5035963;28;20638;-55
2023/01/04 06:54:58;;;;;;;3.30;3.10;;;11.30;92.70;;;14.06;67.19;101032.72;5036015;28;20277;-54
2023/01/04 06:57:26;;;;;;;3.07;2.87;;;11.30;92.70;;;13.93;67.58;101040.56;5035717;28;20609;-55
2023/01/04 06:59:53;;;;;;;3.23;3.00;;;11.40;92.60;;;14.01;67.50;101045.69;5034630;28;20215;-53
2023/01/04 07:02:21;;;;;;;3.03;2.83;;;11.40;92.60;;;14.07;67.36;101031.72;5034680;28;20206;-53
2023/01/04 07:04:48;;;;;;;3.27;3.07;;;11.50;92.60;;;14.19;67.37;101030.22;5034640;28;20218;-54
2023/01/04 07:07:15;;;;;;;3.03;2.83;;;11.50;92.60;;;14.28;66.91;101026.41;5034703;28;20273;-54
2023/01/04 07:09:42;;;;;;;3.00;2.70;;;11.60;92.60;;;14.23;67.15;101031.47;5034755;28;20238;-55
2023/01/04 07:12:09;;;;;;;3.07;2.87;;;11.60;92.40;;;14.12;67.37;101016.09;5035005;28;20209;-55
2023/01/04 07:14:36;;;;;;;3.40;2.60;;;11.60;92.30;;;14.20;67.34;101018.59;5035649;28;20277;-54
2023/01/04 07:17:03;;;;;;;2.83;2.63;;;11.70;92.30;;;14.21;67.11;101009.66;5036990;28;20190;-55
2023/01/04 07:19:32;;;;;;;3.13;2.60;;;11.70;92.30;;;14.24;67.09;101004.78;5036604;28;20246;-53
2023/01/04 07:22:00;;;;;;;2.20;2.07;;;11.70;92.30;;;14.29;67.08;101006.84;5029484;28;20195;-53
2023/01/04 07:24:28;;;;;;;2.33;2.17;;;11.80;92.30;;;14.39;66.94;101006.53;5015383;28;20199;-54
2023/01/04 07:26:58;;;;;;;3.03;2.23;;;11.80;92.30;;;14.39;66.77;101003.91;5014992;28;20310;-53
2023/01/04 07:29:25;;;;;;;2.30;2.20;;;11.80;92.30;;;14.37;67.16;100998.81;5016611;28;20211;-54
2023/01/04 07:31:53;;;;;;;6.03;2.37;;;11.80;92.40;;;14.44;67.03;100996.19;5017095;28;20215;-53
2023/01/04 07:34:24;;;;;;;2.30;2.20;;;11.80;92.30;;;14.47;66.69;101012.53;5027045;28;20278;-54
2023/01/04 07:36:52;;;;;;;1.90;1.80;;;11.80;92.50;;;14.53;66.73;101011.75;5023098;28;20191;-53
2023/01/04 07:39:20;;;;;;;2.30;1.80;;;11.80;92.50;;;14.54;66.76;101016.03;5015911;28;20579;-55
2023/01/04 07:41:48;;;;;;;2.00;1.90;;;11.80;92.60;;;14.52;66.97;101023.38;5014225;28;20203;-52
2023/01/04 07:44:20;;;;;;;2.17;1.97;;;11.90;92.70;;;14.24;68.19;101025.13;5013635;28;20209;-52
2023/01/04 07:46:47;;;;;;;1.90;1.80;;;11.80;92.90;;;14.16;68.35;101018.16;5014327;28;20278;-55
2023/01/04 07:49:17;;;;;;;1.57;1.47;;;11.80;92.90;;;14.27;68.21;101030.06;5032715;28;20218;-53
2023/01/04 07:51:46;;;;;;;2.10;1.83;;;11.80;92.90;;;14.18;68.93;101010.03;5035144;28;20771;-52
2023/01/04 07:54:15;;;;;;;2.30;2.10;;;11.80;93.00;;;14.13;69.14;101002.66;5036263;28;20187;-55
2023/01/04 07:56:43;;;;;;;2.50;1.80;;;11.90;93.10;;;14.21;68.80;100996.41;5034031;28;20247;-52
2023/01/04 07:59:12;;;;;;;3.20;1.80;;;11.80;93.10;;;14.25;68.97;101000.31;5033203;28;20218;-53
2023/01/04 08:01:40;;;;;;;1.70;1.60;;;11.80;93.10;;;14.34;68.44;101009.78;5032201;28;20269;-53
2023/01/04 08:04:10;;;;;;;2.17;1.60;;;11.80;93.20;;;14.34;68.62;101004.47;5015591;28;20180;-53
2023/01/04 08:06:39;;;;;;;2.60;1.70;;;11.80;93.30;;;14.26;69.01;100980.78;5020213;28;20218;-53
2023/01/04 08:09:07;;;;;;;1.60;1.50;;;11.80;93.30;;;14.35;68.74;100994.72;5032642;28;20222;-54
2023/01/04 08:11:36;;;;;;;1.70;1.60;;;11.80;93.30;;;14.24;69.04;100994.19;5033635;28;20190;-56
2023/01/04 08:14:03;;;;;;;1.70;1.60;;;11.80;93.40;;;14.21;69.36;100983.97;5033922;28;20237;-55
2023/01/04 08:16:33;;;;;;;1.50;1.40;;;11.80;93.50;;;14.27;69.40;100974.44;5033308;28;20524;-54
2023/01/04 08:19:04;;;;;;;1.30;1.20;;;11.90;93.50;;;14.30;69.17;100955.56;5032368;28;20260;-52
2023/01/04 08:21:34;;;;;;;1.60;1.50;;;11.90;93.50;;;14.33;68.88;100964.97;5033326;28;20201;-53
2023/01/04 08:24:02;;;;;;;1.63;1.53;;;11.90;93.50;;;14.41;69.06;100960.31;5033593;28;20232;-55
2023/01/04 08:26:30;;;;;;;1.50;1.40;;;11.90;93.50;;;14.49;68.83;100965.47;5036005;28;20206;-55
2023/01/04 08:28:58;;;;;;;1.17;1.13;;;11.90;93.50;;;14.52;68.63;100970.41;5036995;28;20214;-53
2023/01/04 08:31:27;;;;;;;1.30;1.20;;;11.90;93.50;;;14.49;68.80;100976.06;5036833;28;20190;-52
2023/01/04 08:33:56;;;;;;;1.50;1.40;;;11.90;93.50;;;14.47;68.93;100964.84;5017384;28;20278;-54
2023/01/04 08:36:26;;;;;;;2.33;1.20;;;12.00;93.60;;;14.56;68.84;100966.34;5017053;28;20188;-53
2023/01/04 08:38:56;;;;;;;0.90;0.90;;;12.00;93.50;;;14.66;68.59;100964.16;5036456;28;20226;-52
2023/01/04 08:41:28;;;;;;;1.00;0.90;;;12.00;93.40;;;14.74;68.24;100958.69;5037028;28;20178;-53
2023/01/04 08:44:18;;;;;;;1.13;1.10;;;12.10;93.40;;;14.69;68.10;100965.59;5028382;28;20226;-56
2023/01/04 08:46:45;;;;;;;1.30;1.20;;;12.10;93.50;;;14.76;68.31;100969.09;5017046;28;20211;-54
2023/01/04 08:49:13;;;;;;;1.00;1.00;;;12.20;93.40;;;14.78;68.23;100970.53;5029857;28;20222;-55
2023/01/04 08:51:40;;;;;;;1.17;1.10;;;12.20;93.40;;;14.81;68.22;100951.59;5035959;28;20272;-52
2023/01/04 08:54:07;;;;;;;1.10;1.00;;;12.20;93.30;;;14.65;68.78;100959.88;5036016;28;20207;-55
2023/01/04 08:56:35;;;;;;;1.00;0.90;;;12.20;93.30;;;14.80;68.63;100963.22;5036247;28;20186;-55
2023/01/04 08:59:02;;;;;;;1.00;0.90;;;12.30;93.20;;;14.87;68.30;100957.94;5036033;28;20229;-53
2023/01/04 09:01:33;;;;;;;1.10;1.00;;;12.40;93.20;;;14.92;67.82;100960.81;5032238;28;20274;-55
2023/01/04 09:04:01;;;;;;;1.20;1.10;;;12.30;93.10;;;14.91;67.67;100949.41;5020150;28;20207;-53
2023/01/04 09:06:29;;;;;;;1.00;1.00;;;12.40;93.00;;;14.86;68.05;100956.28;5030584;28;20615;-59
2023/01/04 09:08:57;;;;;;;1.53;1.43;;;12.40;92.90;;;14.91;67.76;100954.69;5016548;28;20693;-51
2023/01/04 09:11:25;;;;;;;1.50;1.10;;;12.40;92.80;;;14.97;67.73;100949.63;5020434;28;20238;-54
2023/01/04 09:13:58;;;;;;;1.10;1.00;;;12.50;92.90;;;15.04;67.57;100955.78;5019270;28;20691;-54
2023/01/04 09:16:35;;;;;;;1.10;1.00;;;12.50;92.80;;;15.06;67.59;100951.09;5023113;28;20179;-53
2023/01/04 09:19:04;;;;;;;0.80;0.80;;;12.50;92.80;;;15.00;68.05;100957.19;5034947;28;20237;-52
2023/01/04 09:21:31;;;;;;;0.97;0.97;;;12.50;92.70;;;15.04;67.51;100958.41;5015491;28;20176;-52
2023/01/04 09:23:58;;;;;;;1.10;1.10;;;12.60;92.70;;;15.10;67.05;100947.00;5016344;28;20222;-53
2023/01/04 09:26:25;;;;;;;1.27;1.17;;;12.60;92.70;;;15.15;67.43;100939.28;5016212;28;20223;-56
2023/01/04 09:28:55;;;;;;;1.97;1.30;;;12.60;92.70;;;15.18;67.10;100949.50;5015486;28;20219;-53
2023/01/04 09:31:24;;;;;;;1.13;1.10;;;12.60;92.70;;;15.23;67.07;100950.53;5024836;28;20273;-53
2023/01/04 09:33:54;;;;;;;1.03;1.00;;;12.60;92.70;;;15.09;67.74;100956.00;5036392;28;20526;-53
2023/01/04 09:36:40;;;;;;;1.43;0.80;;;12.60;92.70;;;15.14;67.19;100942.97;5035970;28;20277;-53
2023/01/04 09:39:08;;;;;;;1.83;1.60;;;12.60;92.70;;;15.15;67.31;100949.88;5035002;28;20276;-55
2023/01/04 09:41:56;;;;;;;1.43;1.00;;;12.60;92.70;;;15.19;67.32;100951.94;5016473;28;20191;-51
2023/01/04 09:44:42;;;;;;;1.57;0.77;;;12.60;92.70;;;15.22;67.21;100945.41;5016123;28;20261;-55
2023/01/04 09:47:40;;;;;;;0.80;0.80;;;12.60;92.80;;;15.16;67.18;100938.28;5016359;28;20298;-54
2023/01/04 09:50:17;;;;;;;1.07;0.90;;;12.60;92.80;;;15.23;67.40;100941.75;5024086;28;20206;-54
2023/01/04 09:53:02;;;;;;;1.10;0.93;;;12.70;92.80;;;15.29;67.40;100938.31;5037125;28;20269;-54
2023/01/04 09:55:36;;;;;;;1.03;0.97;;;12.70;92.90;;;15.27;67.51;100937.69;5039802;28;20189;-53
2023/01/04 09:58:22;;;;;;;1.10;1.00;;;12.70;92.80;;;15.33;67.23;100936.91;5036361;28;20201;-55
2023/01/04 10:00:58;;;;;;;1.30;0.97;;;12.70;92.90;;;15.38;67.21;100934.47;5031983;28;20187;-53
2023/01/04 10:03:32;;;;;;;0.73;0.73;;;12.80;92.90;;;15.38;67.12;100934.47;5036444;28;20579;-53
2023/01/04 10:06:02;;;;;;;1.80;0.80;;;12.80;92.90;;;15.42;67.10;100936.53;5036121;28;20202;-52
2023/01/04 10:08:32;;;;;;;0.80;0.80;;;12.80;92.90;;;15.40;67.32;100924.47;5034589;28;20686;-54
2023/01/04 10:11:18;;;;;;;1.27;1.00;;;12.80;92.80;;;15.43;67.17;100916.09;5019624;28;20302;-54
2023/01/04 10:14:06;;;;;;;1.33;1.23;;;12.80;92.80;;;15.45;66.96;100924.72;5015527;28;20590;-53
2023/01/04 10:16:55;;;;;;;1.93;1.10;;;12.80;92.80;;;15.45;67.13;100919.41;5015469;28;20237;-54
2023/01/04 10:20:02;;;;;;;1.30;1.20;;;12.90;92.90;;;15.47;67.13;100906.75;5015383;28;20616;-53
2023/01/04 10:23:04;;;;;;;0.97;0.90;;;12.90;92.80;;;15.56;66.93;100910.84;5015306;28;20203;-52
2023/01/04 10:25:42;;;;;;;0.87;0.87;;;12.90;92.80;;;15.59;67.23;100905.16;5015381;28;20511;-54
2023/01/04 10:28:39;;;;;;;1.00;1.00;;;13.00;92.80;;;15.57;67.15;100905.31;5015064;28;20293;-52
2023/01/04 10:31:15;;;;;;;2.60;1.20;;;13.00;92.90;;;15.49;67.44;100894.09;5030107;28;20198;-54
2023/01/04 10:34:19;;;;;;;1.20;0.90;;;13.00;92.80;;;15.46;67.13;100908.59;5015072;28;20179;-53
2023/01/04 10:36:50;;;;;;;1.43;1.33;;;13.10;92.80;;;15.53;67.69;100905.94;5014845;28;20205;-57
2023/01/04 10:39:23;;;;;;;0.80;0.80;;;13.00;92.70;;;15.57;67.25;100891.22;5015190;28;20203;-53
2023/01/04 10:42:11;;;;;;;0.80;0.70;;;13.00;92.80;;;15.59;67.43;100905.16;5015490;28;20670;-57
2023/01/04 10:44:48;;;;;;;0.80;0.80;;;13.00;92.80;;;15.55;67.38;100895.94;5015996;28;20253;-52
2023/01/04 10:47:24;;;;;;;0.70;0.70;;;13.00;92.80;;;15.62;67.24;100894.09;5014677;28;20222;-52
2023/01/04 10:49:56;;;;;;;0.93;0.93;;;13.10;92.90;;;15.66;67.14;100891.88;5032741;28;20289;-55
2023/01/04 10:52:30;;;;;;;2.80;0.73;;;13.10;92.90;;;15.68;67.04;100893.31;5034318;28;20179;-54
2023/01/04 10:55:06;;;;;;;0.87;0.87;;;13.10;92.90;;;15.68;66.71;100892.47;5034373;28;20277;-55
2023/01/04 10:57:41;;;;;;;0.53;0.53;;;13.10;92.80;;;15.53;67.41;100868.78;5035160;28;20583;-56
2023/01/04 11:00:17;;;;;;;1.60;0.60;;;13.00;92.80;;;15.44;67.73;100869.97;5038153;28;20214;-55
2023/01/04 11:02:55;;;;;;;0.60;0.60;;;13.10;92.80;;;15.57;67.71;100877.97;5036580;28;20190;-54
2023/01/04 11:05:28;;;;;;;0.73;0.67;;;13.20;92.70;;;15.63;67.42;100869.22;5036351;28;20550;-56
2023/01/04 11:08:02;;;;;;;0.57;0.57;;;13.10;92.70;;;15.73;66.96;100871.47;5036240;28;20290;-56
2023/01/04 11:10:39;;;;;;;0.80;0.70;;;13.20;92.80;;;15.63;67.34;100877.16;5025169;28;20597;-55
2023/01/04 11:13:06;;;;;;;0.93;0.70;;;13.20;92.70;;;15.74;67.38;100865.13;5013283;28;20179;-55
2023/01/04 11:15:34;;;;;;;0.60;0.60;;;13.20;92.70;;;15.85;67.06;100856.53;5014179;28;20572;-55
2023/01/04 11:18:06;;;;;;;0.70;0.70;;;13.30;92.70;;;15.96;66.73;100856.75;5013951;28;20191;-58
2023/01/04 11:20:33;;;;;;;0.67;0.67;;;13.30;92.70;;;16.03;66.44;100854.88;5024202;28;20225;-54